EWG5ZA LEPA-EDLP
Flight info
| Callsign | EWG5ZA |
|---|---|
| Flight time | 2h 6m |
| Altitude | 36000 |
| Route | GALAT DCT RODRA DCT VNV DCT ANTON DCT BISES DCT SADUR DCT CAVES DCT LATRO DCT OLOXO DCT OKABI DCT TOU DCT ADABI DCT BOKNO DCT DIBES DCT VIQAQ DCT TSU UM163 CTL DCT ARDEN/N0453F370 DCT KOMOB T859 NVO M170 PADBA PADBA4H |
| Aircraft | A320/M-SDE3FGHIRWY/LB1 |
Departure
| Time | 2026-05-06 10:05 |
|---|---|
| Airport | Palma de Mallorca Airport (LEPA) |
Arrival
| Time | 2026-05-06 12:11 |
|---|---|
| Airport | Paderborn Lippstadt Airport (EDLP) |
| Time | Latitude | Longitude | Altitude | Speed | Heading |
|---|---|---|---|---|---|
| 2026-05-06 09:21 | 39.54851 | 2.73836 | 38 ft | 0 kts | 268° |
| 2026-05-06 09:26 | 39.54902 | 2.73802 | 37 ft | 0 kts | 249° |
| 2026-05-06 09:56 | 39.54910 | 2.73829 | 38 ft | 4 kts | 249° |
| 2026-05-06 09:56 | 39.54920 | 2.73862 | 38 ft | 4 kts | 249° |
| 2026-05-06 09:56 | 39.54928 | 2.73888 | 37 ft | 4 kts | 257° |
| 2026-05-06 09:56 | 39.54928 | 2.73921 | 38 ft | 4 kts | 292° |
| 2026-05-06 09:57 | 39.54913 | 2.73948 | 37 ft | 4 kts | 324° |
| 2026-05-06 09:57 | 39.54892 | 2.73965 | 38 ft | 4 kts | 329° |
| 2026-05-06 09:57 | 39.54879 | 2.73975 | 33 ft | 0 kts | 329° |
| 2026-05-06 10:00 | 39.54884 | 2.73971 | 37 ft | 6 kts | 329° |
| 2026-05-06 10:00 | 39.54964 | 2.74010 | 38 ft | 16 kts | 15° |
| 2026-05-06 10:00 | 39.55059 | 2.73942 | 38 ft | 19 kts | 328° |
| 2026-05-06 10:01 | 39.55186 | 2.73843 | 38 ft | 22 kts | 329° |
| 2026-05-06 10:01 | 39.55321 | 2.73738 | 38 ft | 23 kts | 329° |
| 2026-05-06 10:01 | 39.55463 | 2.73624 | 38 ft | 25 kts | 328° |
| 2026-05-06 10:01 | 39.55597 | 2.73518 | 38 ft | 20 kts | 332° |
| 2026-05-06 10:02 | 39.55700 | 2.73598 | 38 ft | 20 kts | 57° |
| 2026-05-06 10:02 | 39.55774 | 2.73752 | 38 ft | 21 kts | 58° |
| 2026-05-06 10:02 | 39.55851 | 2.73916 | 38 ft | 22 kts | 59° |
| 2026-05-06 10:02 | 39.55932 | 2.74087 | 38 ft | 23 kts | 58° |
| 2026-05-06 10:03 | 39.56010 | 2.74243 | 38 ft | 18 kts | 47° |
| 2026-05-06 10:03 | 39.56121 | 2.74323 | 38 ft | 15 kts | 27° |
| 2026-05-06 10:03 | 39.56200 | 2.74342 | 38 ft | 12 kts | 338° |
| 2026-05-06 10:03 | 39.56234 | 2.74279 | 38 ft | 8 kts | 238° |
| 2026-05-06 10:04 | 39.56197 | 2.74205 | 38 ft | 20 kts | 237° |
| 2026-05-06 10:04 | 39.55986 | 2.73754 | 38 ft | 93 kts | 239° |
| 2026-05-06 10:04 | 39.55543 | 2.72817 | 38 ft | 149 kts | 239° |
| 2026-05-06 10:04 | 39.54946 | 2.71538 | 358 ft | 164 kts | 239° |
| 2026-05-06 10:05 | 39.54338 | 2.70273 | 983 ft | 169 kts | 237° |
| 2026-05-06 10:05 | 39.53668 | 2.68918 | 1357 ft | 189 kts | 236° |
| 2026-05-06 10:05 | 39.52904 | 2.67426 | 1697 ft | 209 kts | 236° |
| 2026-05-06 10:05 | 39.52071 | 2.65796 | 2212 ft | 222 kts | 237° |
| 2026-05-06 10:06 | 39.51215 | 2.64119 | 2997 ft | 224 kts | 237° |
| 2026-05-06 10:06 | 39.50350 | 2.62425 | 3794 ft | 226 kts | 237° |
| 2026-05-06 10:06 | 39.49479 | 2.60722 | 4640 ft | 226 kts | 237° |
| 2026-05-06 10:06 | 39.48629 | 2.58985 | 5286 ft | 237 kts | 245° |
| 2026-05-06 10:07 | 39.48307 | 2.56819 | 5625 ft | 260 kts | 277° |
| 2026-05-06 10:07 | 39.48935 | 2.54583 | 6264 ft | 271 kts | 298° |
| 2026-05-06 10:07 | 39.49817 | 2.52445 | 7070 ft | 274 kts | 297° |
| 2026-05-06 10:07 | 39.50700 | 2.50256 | 7960 ft | 275 kts | 296° |
| 2026-05-06 10:08 | 39.51584 | 2.48044 | 8824 ft | 277 kts | 295° |
| 2026-05-06 10:08 | 39.52469 | 2.45817 | 9710 ft | 279 kts | 295° |
| 2026-05-06 10:08 | 39.53364 | 2.43562 | 10317 ft | 289 kts | 295° |
| 2026-05-06 10:08 | 39.54458 | 2.41241 | 10538 ft | 315 kts | 305° |
| 2026-05-06 10:09 | 39.56004 | 2.39087 | 10792 ft | 338 kts | 316° |
| 2026-05-06 10:09 | 39.57972 | 2.37325 | 11361 ft | 350 kts | 327° |
| 2026-05-06 10:09 | 39.60103 | 2.35759 | 12069 ft | 354 kts | 327° |
| 2026-05-06 10:09 | 39.62252 | 2.34164 | 12773 ft | 358 kts | 326° |
| 2026-05-06 10:10 | 39.64422 | 2.32541 | 13453 ft | 362 kts | 326° |
| 2026-05-06 10:10 | 39.66608 | 2.30901 | 14078 ft | 365 kts | 325° |
| 2026-05-06 10:10 | 39.68820 | 2.29240 | 14667 ft | 369 kts | 325° |
| 2026-05-06 10:10 | 39.71054 | 2.27563 | 15296 ft | 372 kts | 326° |
| 2026-05-06 10:11 | 39.73303 | 2.25874 | 15885 ft | 375 kts | 326° |
| 2026-05-06 10:11 | 39.75579 | 2.24168 | 16459 ft | 379 kts | 326° |
| 2026-05-06 10:11 | 39.77874 | 2.22449 | 17015 ft | 383 kts | 326° |
| 2026-05-06 10:11 | 39.80190 | 2.20713 | 17619 ft | 386 kts | 325° |
| 2026-05-06 10:12 | 39.82528 | 2.18956 | 18188 ft | 390 kts | 324° |
| 2026-05-06 10:12 | 39.84862 | 2.17196 | 18674 ft | 394 kts | 324° |
| 2026-05-06 10:12 | 39.87242 | 2.15401 | 19183 ft | 397 kts | 324° |
| 2026-05-06 10:12 | 39.89635 | 2.13600 | 19732 ft | 399 kts | 324° |
| 2026-05-06 10:13 | 39.92049 | 2.11785 | 20248 ft | 402 kts | 324° |
| 2026-05-06 10:13 | 39.94480 | 2.09953 | 20778 ft | 404 kts | 324° |
| 2026-05-06 10:13 | 39.96925 | 2.08110 | 21261 ft | 407 kts | 324° |
| 2026-05-06 10:13 | 39.99381 | 2.06256 | 21766 ft | 409 kts | 324° |
| 2026-05-06 10:14 | 40.01859 | 2.04382 | 22256 ft | 412 kts | 324° |
| 2026-05-06 10:14 | 40.04350 | 2.02502 | 22717 ft | 414 kts | 324° |
| 2026-05-06 10:14 | 40.06850 | 2.00614 | 23171 ft | 417 kts | 324° |
| 2026-05-06 10:14 | 40.09369 | 1.98709 | 23606 ft | 419 kts | 323° |
| 2026-05-06 10:15 | 40.11899 | 1.96789 | 23975 ft | 421 kts | 323° |
| 2026-05-06 10:15 | 40.14505 | 1.94979 | 24331 ft | 428 kts | 330° |
| 2026-05-06 10:15 | 40.17351 | 1.93692 | 24681 ft | 438 kts | 340° |
| 2026-05-06 10:15 | 40.20369 | 1.92925 | 25027 ft | 443 kts | 343° |
| 2026-05-06 10:16 | 40.23409 | 1.92221 | 25364 ft | 445 kts | 343° |
| 2026-05-06 10:16 | 40.26470 | 1.91512 | 25705 ft | 448 kts | 343° |
| 2026-05-06 10:16 | 40.29549 | 1.90802 | 26040 ft | 450 kts | 343° |
| 2026-05-06 10:16 | 40.32598 | 1.90097 | 26380 ft | 451 kts | 343° |
| 2026-05-06 10:17 | 40.35699 | 1.89380 | 26704 ft | 453 kts | 343° |
| 2026-05-06 10:17 | 40.38804 | 1.88657 | 27012 ft | 455 kts | 343° |
| 2026-05-06 10:17 | 40.41930 | 1.87929 | 27306 ft | 457 kts | 343° |
| 2026-05-06 10:17 | 40.45069 | 1.87196 | 27611 ft | 458 kts | 343° |
| 2026-05-06 10:18 | 40.48213 | 1.86459 | 27934 ft | 460 kts | 343° |
| 2026-05-06 10:18 | 40.51370 | 1.85715 | 28203 ft | 462 kts | 342° |
| 2026-05-06 10:18 | 40.54541 | 1.84968 | 28470 ft | 464 kts | 342° |
| 2026-05-06 10:18 | 40.57730 | 1.84224 | 28737 ft | 465 kts | 343° |
| 2026-05-06 10:19 | 40.60925 | 1.83481 | 28986 ft | 467 kts | 343° |
| 2026-05-06 10:19 | 40.64129 | 1.82734 | 29224 ft | 469 kts | 342° |
| 2026-05-06 10:19 | 40.67348 | 1.81981 | 29459 ft | 470 kts | 342° |
| 2026-05-06 10:19 | 40.70575 | 1.81223 | 29736 ft | 470 kts | 342° |
| 2026-05-06 10:20 | 40.73796 | 1.80461 | 30053 ft | 469 kts | 342° |
| 2026-05-06 10:20 | 40.77002 | 1.79699 | 30337 ft | 468 kts | 342° |
| 2026-05-06 10:20 | 40.80212 | 1.78934 | 30612 ft | 468 kts | 342° |
| 2026-05-06 10:20 | 40.83412 | 1.78177 | 30885 ft | 467 kts | 342° |
| 2026-05-06 10:21 | 40.86610 | 1.77426 | 31156 ft | 466 kts | 342° |
| 2026-05-06 10:21 | 40.89801 | 1.76677 | 31453 ft | 466 kts | 342° |
| 2026-05-06 10:21 | 40.92945 | 1.75934 | 31733 ft | 465 kts | 342° |
| 2026-05-06 10:21 | 40.96124 | 1.75176 | 32009 ft | 464 kts | 342° |
| 2026-05-06 10:22 | 40.99302 | 1.74419 | 32284 ft | 463 kts | 342° |
| 2026-05-06 10:22 | 41.02467 | 1.73666 | 32564 ft | 463 kts | 342° |
| 2026-05-06 10:22 | 41.05640 | 1.72921 | 32842 ft | 463 kts | 342° |
| 2026-05-06 10:22 | 41.08827 | 1.72287 | 33123 ft | 464 kts | 344° |
| 2026-05-06 10:23 | 41.12035 | 1.71771 | 33428 ft | 465 kts | 346° |
| 2026-05-06 10:23 | 41.15250 | 1.71328 | 33689 ft | 465 kts | 346° |
| 2026-05-06 10:23 | 41.18472 | 1.70906 | 33955 ft | 465 kts | 346° |
| 2026-05-06 10:23 | 41.21687 | 1.70478 | 34192 ft | 464 kts | 346° |
| 2026-05-06 10:24 | 41.24891 | 1.70028 | 34412 ft | 463 kts | 346° |
| 2026-05-06 10:24 | 41.28096 | 1.69553 | 34625 ft | 463 kts | 346° |
| 2026-05-06 10:24 | 41.31298 | 1.69052 | 34832 ft | 463 kts | 345° |
| 2026-05-06 10:24 | 41.34489 | 1.68537 | 35056 ft | 463 kts | 346° |
| 2026-05-06 10:25 | 41.37693 | 1.68023 | 35232 ft | 464 kts | 346° |
| 2026-05-06 10:25 | 41.40894 | 1.67516 | 35422 ft | 464 kts | 346° |
| 2026-05-06 10:25 | 41.44097 | 1.67017 | 35604 ft | 464 kts | 346° |
| 2026-05-06 10:25 | 41.47304 | 1.66520 | 35782 ft | 464 kts | 346° |
| 2026-05-06 10:26 | 41.49426 | 1.66193 | 35906 ft | 463 kts | 346° |
| 2026-05-06 10:26 | 41.52635 | 1.65693 | 35965 ft | 465 kts | 346° |
| 2026-05-06 10:26 | 41.59067 | 1.64677 | 35973 ft | 466 kts | 346° |
| 2026-05-06 10:27 | 41.65508 | 1.63662 | 35972 ft | 466 kts | 346° |
| 2026-05-06 10:27 | 41.71951 | 1.62648 | 35970 ft | 466 kts | 346° |
| 2026-05-06 10:28 | 41.78396 | 1.61638 | 35985 ft | 466 kts | 346° |
| 2026-05-06 10:28 | 41.84838 | 1.60626 | 35988 ft | 466 kts | 346° |
| 2026-05-06 10:29 | 41.91295 | 1.59605 | 35997 ft | 467 kts | 346° |
| 2026-05-06 10:29 | 41.97755 | 1.58575 | 36020 ft | 467 kts | 346° |
| 2026-05-06 10:30 | 42.04214 | 1.57551 | 36009 ft | 468 kts | 347° |
| 2026-05-06 10:30 | 42.10676 | 1.56524 | 35995 ft | 467 kts | 346° |
| 2026-05-06 10:31 | 42.17140 | 1.55492 | 35978 ft | 468 kts | 346° |
| 2026-05-06 10:31 | 42.23603 | 1.54457 | 36008 ft | 468 kts | 347° |
| 2026-05-06 10:32 | 42.30042 | 1.53431 | 36002 ft | 468 kts | 347° |
| 2026-05-06 10:32 | 42.36528 | 1.52397 | 36018 ft | 468 kts | 347° |
| 2026-05-06 10:33 | 42.42987 | 1.51365 | 35981 ft | 466 kts | 347° |
| 2026-05-06 10:33 | 42.49417 | 1.50327 | 35974 ft | 465 kts | 347° |
| 2026-05-06 10:34 | 42.55834 | 1.49295 | 35971 ft | 465 kts | 347° |
| 2026-05-06 10:34 | 42.62257 | 1.48256 | 35992 ft | 465 kts | 347° |
| 2026-05-06 10:35 | 42.68692 | 1.47224 | 35981 ft | 466 kts | 347° |
| 2026-05-06 10:35 | 42.75129 | 1.46187 | 35977 ft | 466 kts | 347° |
| 2026-05-06 10:36 | 42.81565 | 1.45150 | 35984 ft | 466 kts | 347° |
| 2026-05-06 10:36 | 42.87950 | 1.44117 | 35985 ft | 466 kts | 347° |
| 2026-05-06 10:37 | 42.94393 | 1.43070 | 35989 ft | 466 kts | 347° |
| 2026-05-06 10:37 | 43.00826 | 1.42029 | 35989 ft | 465 kts | 347° |
| 2026-05-06 10:38 | 43.07254 | 1.40982 | 35988 ft | 465 kts | 348° |
| 2026-05-06 10:38 | 43.13677 | 1.39928 | 35986 ft | 465 kts | 348° |
| 2026-05-06 10:39 | 43.20106 | 1.38876 | 35988 ft | 465 kts | 348° |
| 2026-05-06 10:39 | 43.26547 | 1.37831 | 35994 ft | 466 kts | 348° |
| 2026-05-06 10:40 | 43.32979 | 1.36779 | 35990 ft | 466 kts | 348° |
| 2026-05-06 10:40 | 43.39414 | 1.35722 | 35988 ft | 466 kts | 348° |
| 2026-05-06 10:41 | 43.45843 | 1.34666 | 36000 ft | 466 kts | 348° |
| 2026-05-06 10:41 | 43.52272 | 1.33602 | 35991 ft | 465 kts | 348° |
| 2026-05-06 10:42 | 43.58701 | 1.32526 | 35987 ft | 465 kts | 348° |
| 2026-05-06 10:42 | 43.65130 | 1.31460 | 36013 ft | 465 kts | 349° |
| 2026-05-06 10:43 | 43.71544 | 1.30271 | 36002 ft | 463 kts | 346° |
| 2026-05-06 10:44 | 43.80992 | 1.27743 | 35994 ft | 462 kts | 344° |
| 2026-05-06 10:44 | 43.87302 | 1.25999 | 35998 ft | 462 kts | 345° |
| 2026-05-06 10:45 | 43.93626 | 1.24354 | 35988 ft | 462 kts | 346° |
| 2026-05-06 10:45 | 43.99957 | 1.22741 | 35981 ft | 462 kts | 346° |
| 2026-05-06 10:46 | 44.06288 | 1.21106 | 35991 ft | 462 kts | 346° |
| 2026-05-06 10:46 | 44.12609 | 1.19460 | 35984 ft | 462 kts | 346° |
| 2026-05-06 10:47 | 44.18922 | 1.17810 | 35978 ft | 462 kts | 346° |
| 2026-05-06 10:47 | 44.25238 | 1.16154 | 35978 ft | 462 kts | 346° |
| 2026-05-06 10:48 | 44.31545 | 1.14494 | 35982 ft | 461 kts | 346° |
| 2026-05-06 10:48 | 44.37850 | 1.12840 | 35971 ft | 460 kts | 346° |
| 2026-05-06 10:49 | 44.44143 | 1.11181 | 35990 ft | 460 kts | 346° |
| 2026-05-06 10:49 | 44.50383 | 1.09530 | 35979 ft | 459 kts | 346° |
| 2026-05-06 10:50 | 44.56653 | 1.07874 | 35972 ft | 458 kts | 346° |
| 2026-05-06 10:50 | 44.62929 | 1.06213 | 35971 ft | 458 kts | 347° |
| 2026-05-06 10:51 | 44.69188 | 1.04543 | 35954 ft | 457 kts | 347° |
| 2026-05-06 10:51 | 44.75437 | 1.02873 | 35952 ft | 457 kts | 347° |
| 2026-05-06 10:52 | 44.81692 | 1.01202 | 35945 ft | 458 kts | 347° |
| 2026-05-06 10:52 | 44.87953 | 0.99526 | 35941 ft | 457 kts | 347° |
| 2026-05-06 10:53 | 44.94196 | 0.97858 | 35941 ft | 457 kts | 347° |
| 2026-05-06 10:53 | 45.00446 | 0.96183 | 35948 ft | 457 kts | 347° |
| 2026-05-06 10:54 | 45.06696 | 0.94492 | 35942 ft | 457 kts | 347° |
| 2026-05-06 10:54 | 45.12946 | 0.92795 | 35939 ft | 457 kts | 347° |
| 2026-05-06 10:55 | 45.19202 | 0.91114 | 35946 ft | 457 kts | 347° |
| 2026-05-06 10:55 | 45.25421 | 0.89431 | 35942 ft | 458 kts | 347° |
| 2026-05-06 10:56 | 45.31677 | 0.87732 | 35940 ft | 458 kts | 347° |
| 2026-05-06 10:56 | 45.37929 | 0.86026 | 35930 ft | 458 kts | 347° |
| 2026-05-06 10:57 | 45.44185 | 0.84323 | 35935 ft | 458 kts | 347° |
| 2026-05-06 10:57 | 45.50448 | 0.82608 | 35926 ft | 458 kts | 347° |
| 2026-05-06 10:58 | 45.56697 | 0.80886 | 35919 ft | 458 kts | 347° |
| 2026-05-06 10:58 | 45.62953 | 0.79162 | 35924 ft | 458 kts | 347° |
| 2026-05-06 10:59 | 45.69213 | 0.77448 | 35928 ft | 458 kts | 348° |
| 2026-05-06 10:59 | 45.75465 | 0.75724 | 35928 ft | 457 kts | 347° |
| 2026-05-06 11:00 | 45.81698 | 0.73983 | 35937 ft | 456 kts | 348° |
| 2026-05-06 11:00 | 45.87930 | 0.72253 | 35928 ft | 456 kts | 348° |
| 2026-05-06 11:01 | 45.94121 | 0.70544 | 35930 ft | 455 kts | 348° |
| 2026-05-06 11:01 | 46.00341 | 0.68819 | 35927 ft | 455 kts | 348° |
| 2026-05-06 11:02 | 46.06560 | 0.67071 | 35931 ft | 455 kts | 348° |
| 2026-05-06 11:02 | 46.12769 | 0.65326 | 35922 ft | 455 kts | 347° |
| 2026-05-06 11:03 | 46.18991 | 0.63585 | 35939 ft | 455 kts | 348° |
| 2026-05-06 11:03 | 46.25209 | 0.61842 | 35929 ft | 454 kts | 348° |
| 2026-05-06 11:04 | 46.31420 | 0.60098 | 35930 ft | 454 kts | 348° |
| 2026-05-06 11:04 | 46.37622 | 0.58347 | 35931 ft | 454 kts | 348° |
| 2026-05-06 11:05 | 46.43829 | 0.56589 | 35935 ft | 454 kts | 348° |
| 2026-05-06 11:05 | 46.50029 | 0.54827 | 35937 ft | 454 kts | 348° |
| 2026-05-06 11:06 | 46.56276 | 0.53714 | 35932 ft | 454 kts | 1° |
| 2026-05-06 11:06 | 46.62514 | 0.55165 | 35933 ft | 455 kts | 12° |
| 2026-05-06 11:07 | 46.68684 | 0.57216 | 35927 ft | 455 kts | 12° |
| 2026-05-06 11:07 | 46.74847 | 0.59257 | 35928 ft | 456 kts | 12° |
| 2026-05-06 11:08 | 46.80924 | 0.61255 | 35929 ft | 456 kts | 12° |
| 2026-05-06 11:08 | 46.87113 | 0.63306 | 35931 ft | 456 kts | 12° |
| 2026-05-06 11:09 | 46.93295 | 0.65374 | 35930 ft | 456 kts | 12° |
| 2026-05-06 11:09 | 46.99481 | 0.67431 | 35929 ft | 456 kts | 12° |
| 2026-05-06 11:10 | 47.04562 | 0.69505 | 35926 ft | 456 kts | 22° |
| 2026-05-06 11:10 | 47.10997 | 0.74781 | 35928 ft | 457 kts | 31° |
| 2026-05-06 11:11 | 47.16432 | 0.79635 | 35937 ft | 457 kts | 31° |
| 2026-05-06 11:11 | 47.20997 | 0.83701 | 35943 ft | 457 kts | 31° |
| 2026-05-06 11:12 | 47.26405 | 0.88522 | 35948 ft | 457 kts | 31° |
| 2026-05-06 11:12 | 47.31839 | 0.93387 | 35952 ft | 457 kts | 31° |
| 2026-05-06 11:13 | 47.37274 | 0.98281 | 35933 ft | 457 kts | 31° |
| 2026-05-06 11:13 | 47.42708 | 1.03186 | 35941 ft | 458 kts | 31° |
| 2026-05-06 11:14 | 47.48144 | 1.08112 | 35937 ft | 458 kts | 31° |
| 2026-05-06 11:14 | 47.53617 | 1.12914 | 35935 ft | 458 kts | 28° |
| 2026-05-06 11:15 | 47.59259 | 1.17296 | 35933 ft | 458 kts | 27° |
| 2026-05-06 11:15 | 47.64949 | 1.21576 | 35927 ft | 458 kts | 27° |
| 2026-05-06 11:16 | 47.70607 | 1.25946 | 35931 ft | 459 kts | 28° |
| 2026-05-06 11:16 | 47.76241 | 1.30403 | 35929 ft | 459 kts | 28° |
| 2026-05-06 11:17 | 47.81879 | 1.34871 | 35928 ft | 459 kts | 28° |
| 2026-05-06 11:17 | 47.87512 | 1.39323 | 35922 ft | 459 kts | 28° |
| 2026-05-06 11:18 | 47.93119 | 1.43767 | 35923 ft | 459 kts | 28° |
| 2026-05-06 11:18 | 47.98764 | 1.48239 | 35929 ft | 460 kts | 28° |
| 2026-05-06 11:19 | 48.04418 | 1.52742 | 35931 ft | 460 kts | 28° |
| 2026-05-06 11:19 | 48.10071 | 1.57257 | 35929 ft | 460 kts | 28° |
| 2026-05-06 11:20 | 48.15714 | 1.61773 | 35920 ft | 460 kts | 28° |
| 2026-05-06 11:20 | 48.21367 | 1.66299 | 35924 ft | 460 kts | 28° |
| 2026-05-06 11:21 | 48.27010 | 1.70836 | 35922 ft | 460 kts | 28° |
| 2026-05-06 11:21 | 48.32649 | 1.75393 | 35920 ft | 461 kts | 28° |
| 2026-05-06 11:22 | 48.38301 | 1.79959 | 35925 ft | 461 kts | 28° |
| 2026-05-06 11:22 | 48.43929 | 1.84520 | 35925 ft | 461 kts | 28° |
| 2026-05-06 11:23 | 48.49577 | 1.89106 | 35922 ft | 461 kts | 28° |
| 2026-05-06 11:23 | 48.55235 | 1.93718 | 35921 ft | 462 kts | 28° |
| 2026-05-06 11:24 | 48.60891 | 1.98345 | 35925 ft | 462 kts | 28° |
| 2026-05-06 11:24 | 48.66546 | 2.02978 | 35923 ft | 462 kts | 28° |
| 2026-05-06 11:25 | 48.72048 | 2.07960 | 35925 ft | 461 kts | 40° |
| 2026-05-06 11:25 | 48.76315 | 2.15143 | 35915 ft | 458 kts | 59° |
| 2026-05-06 11:26 | 48.79021 | 2.23866 | 35906 ft | 457 kts | 69° |
| 2026-05-06 11:26 | 48.81398 | 2.32742 | 35906 ft | 458 kts | 69° |
| 2026-05-06 11:27 | 48.83786 | 2.41700 | 35912 ft | 458 kts | 70° |
| 2026-05-06 11:27 | 48.86165 | 2.50684 | 35914 ft | 458 kts | 70° |
| 2026-05-06 11:28 | 48.88531 | 2.59680 | 35918 ft | 459 kts | 69° |
| 2026-05-06 11:28 | 48.90886 | 2.68683 | 35906 ft | 459 kts | 70° |
| 2026-05-06 11:29 | 48.93246 | 2.77709 | 35905 ft | 460 kts | 70° |
| 2026-05-06 11:29 | 48.95613 | 2.86763 | 35897 ft | 461 kts | 69° |
| 2026-05-06 11:30 | 48.97975 | 2.95844 | 35902 ft | 462 kts | 70° |
| 2026-05-06 11:30 | 49.00273 | 3.04722 | 35901 ft | 461 kts | 70° |
| 2026-05-06 11:31 | 49.02611 | 3.13823 | 35903 ft | 462 kts | 70° |
| 2026-05-06 11:31 | 49.04946 | 3.22961 | 35894 ft | 462 kts | 70° |
| 2026-05-06 11:32 | 49.07276 | 3.32092 | 35895 ft | 462 kts | 70° |
| 2026-05-06 11:32 | 49.09604 | 3.41238 | 35892 ft | 462 kts | 70° |
| 2026-05-06 11:33 | 49.11908 | 3.50337 | 35896 ft | 463 kts | 71° |
| 2026-05-06 11:33 | 49.14786 | 3.59179 | 35884 ft | 465 kts | 56° |
| 2026-05-06 11:34 | 49.18946 | 3.66675 | 35887 ft | 466 kts | 50° |
| 2026-05-06 11:34 | 49.23166 | 3.73976 | 35880 ft | 466 kts | 50° |
| 2026-05-06 11:35 | 49.27449 | 3.81441 | 35884 ft | 466 kts | 50° |
| 2026-05-06 11:35 | 49.31726 | 3.88909 | 35884 ft | 466 kts | 50° |
| 2026-05-06 11:36 | 49.36001 | 3.96381 | 35883 ft | 466 kts | 50° |
| 2026-05-06 11:36 | 49.40276 | 4.03871 | 35883 ft | 466 kts | 50° |
| 2026-05-06 11:37 | 49.44543 | 4.11363 | 35877 ft | 466 kts | 50° |
| 2026-05-06 11:37 | 49.48808 | 4.18871 | 35880 ft | 466 kts | 50° |
| 2026-05-06 11:38 | 49.53058 | 4.26396 | 35881 ft | 466 kts | 50° |
| 2026-05-06 11:38 | 49.57306 | 4.33937 | 35879 ft | 466 kts | 50° |
| 2026-05-06 11:39 | 49.61552 | 4.41490 | 35880 ft | 466 kts | 50° |
| 2026-05-06 11:39 | 49.65786 | 4.49042 | 35883 ft | 466 kts | 50° |
| 2026-05-06 11:40 | 49.70018 | 4.56625 | 35865 ft | 467 kts | 50° |
| 2026-05-06 11:40 | 49.74241 | 4.64192 | 35865 ft | 467 kts | 50° |
| 2026-05-06 11:41 | 49.78480 | 4.71815 | 35864 ft | 467 kts | 50° |
| 2026-05-06 11:41 | 49.82709 | 4.79453 | 35863 ft | 467 kts | 50° |
| 2026-05-06 11:42 | 49.86940 | 4.87105 | 35865 ft | 467 kts | 50° |
| 2026-05-06 11:42 | 49.91167 | 4.94764 | 35869 ft | 467 kts | 50° |
| 2026-05-06 11:43 | 49.95385 | 5.02445 | 35865 ft | 467 kts | 50° |
| 2026-05-06 11:43 | 49.99594 | 5.10137 | 35862 ft | 467 kts | 50° |
| 2026-05-06 11:44 | 50.05910 | 5.21717 | 35860 ft | 468 kts | 51° |
| 2026-05-06 11:44 | 50.10122 | 5.29458 | 35870 ft | 468 kts | 50° |
| 2026-05-06 11:45 | 50.14319 | 5.37199 | 35869 ft | 468 kts | 50° |
| 2026-05-06 11:45 | 50.18484 | 5.44917 | 35865 ft | 468 kts | 51° |
| 2026-05-06 11:46 | 50.22667 | 5.52675 | 35859 ft | 467 kts | 51° |
| 2026-05-06 11:46 | 50.26861 | 5.60472 | 35848 ft | 469 kts | 51° |
| 2026-05-06 11:47 | 50.31045 | 5.68288 | 35852 ft | 468 kts | 51° |
| 2026-05-06 11:47 | 50.35224 | 5.76112 | 35843 ft | 468 kts | 51° |
| 2026-05-06 11:48 | 50.39387 | 5.83938 | 35848 ft | 468 kts | 51° |
| 2026-05-06 11:48 | 50.43553 | 5.91783 | 35849 ft | 468 kts | 51° |
| 2026-05-06 11:49 | 50.47718 | 5.99648 | 35643 ft | 468 kts | 51° |
| 2026-05-06 11:49 | 50.49796 | 6.03584 | 35393 ft | 468 kts | 51° |
| 2026-05-06 11:49 | 50.51873 | 6.07530 | 35146 ft | 468 kts | 51° |
| 2026-05-06 11:50 | 50.53946 | 6.11475 | 34896 ft | 468 kts | 51° |
| 2026-05-06 11:50 | 50.56019 | 6.15423 | 34637 ft | 467 kts | 51° |
| 2026-05-06 11:50 | 50.58086 | 6.19363 | 34402 ft | 467 kts | 51° |
| 2026-05-06 11:50 | 50.60153 | 6.23309 | 34164 ft | 466 kts | 51° |
| 2026-05-06 11:51 | 50.62211 | 6.27248 | 33937 ft | 466 kts | 51° |
| 2026-05-06 11:51 | 50.64285 | 6.31163 | 33683 ft | 465 kts | 50° |
| 2026-05-06 11:51 | 50.66399 | 6.35025 | 33406 ft | 465 kts | 49° |
| 2026-05-06 11:51 | 50.68537 | 6.38852 | 33082 ft | 465 kts | 49° |
| 2026-05-06 11:52 | 50.70692 | 6.42676 | 31970 ft | 470 kts | 49° |
| 2026-05-06 11:52 | 50.72863 | 6.46540 | 30988 ft | 470 kts | 50° |
| 2026-05-06 11:52 | 50.75015 | 6.50399 | 29969 ft | 469 kts | 50° |
| 2026-05-06 11:52 | 50.77164 | 6.54287 | 28898 ft | 467 kts | 50° |
| 2026-05-06 11:53 | 50.79242 | 6.58072 | 28439 ft | 454 kts | 50° |
| 2026-05-06 11:53 | 50.81319 | 6.61869 | 27728 ft | 448 kts | 50° |
| 2026-05-06 11:53 | 50.83152 | 6.65731 | 27080 ft | 441 kts | 57° |
| 2026-05-06 11:53 | 50.84808 | 6.69799 | 26431 ft | 436 kts | 58° |
| 2026-05-06 11:54 | 50.86450 | 6.73809 | 25796 ft | 432 kts | 57° |
| 2026-05-06 11:54 | 50.88080 | 6.77774 | 25170 ft | 428 kts | 57° |
| 2026-05-06 11:54 | 50.89158 | 6.80393 | 24746 ft | 426 kts | 57° |
| 2026-05-06 11:54 | 50.90776 | 6.84327 | 24137 ft | 423 kts | 57° |
| 2026-05-06 11:55 | 50.92374 | 6.88224 | 23522 ft | 421 kts | 57° |
| 2026-05-06 11:55 | 50.93962 | 6.92110 | 22847 ft | 418 kts | 57° |
| 2026-05-06 11:55 | 50.96045 | 6.97218 | 22103 ft | 413 kts | 57° |
| 2026-05-06 11:55 | 50.97593 | 7.01028 | 21557 ft | 409 kts | 57° |
| 2026-05-06 11:56 | 50.98630 | 7.03586 | 21213 ft | 407 kts | 57° |
| 2026-05-06 11:56 | 51.00655 | 7.08580 | 20547 ft | 403 kts | 57° |
| 2026-05-06 11:56 | 51.01679 | 7.11109 | 20212 ft | 401 kts | 57° |
| 2026-05-06 11:56 | 51.03183 | 7.14827 | 19732 ft | 398 kts | 57° |
| 2026-05-06 11:57 | 51.04655 | 7.18457 | 19261 ft | 395 kts | 57° |
| 2026-05-06 11:57 | 51.06143 | 7.22119 | 18794 ft | 394 kts | 57° |
| 2026-05-06 11:57 | 51.07613 | 7.25748 | 18306 ft | 394 kts | 57° |
| 2026-05-06 11:57 | 51.09089 | 7.29414 | 17776 ft | 393 kts | 58° |
| 2026-05-06 11:58 | 51.10553 | 7.33068 | 17257 ft | 390 kts | 58° |
| 2026-05-06 11:58 | 51.12004 | 7.36700 | 16761 ft | 388 kts | 58° |
| 2026-05-06 11:58 | 51.13445 | 7.40305 | 16250 ft | 386 kts | 58° |
| 2026-05-06 11:58 | 51.14887 | 7.43904 | 15730 ft | 384 kts | 58° |
| 2026-05-06 11:59 | 51.16317 | 7.47477 | 15205 ft | 382 kts | 58° |
| 2026-05-06 11:59 | 51.17742 | 7.51042 | 14678 ft | 381 kts | 58° |
| 2026-05-06 11:59 | 51.19162 | 7.54602 | 14149 ft | 380 kts | 58° |
| 2026-05-06 11:59 | 51.20575 | 7.58151 | 13613 ft | 378 kts | 58° |
| 2026-05-06 12:00 | 51.21982 | 7.61689 | 13028 ft | 377 kts | 58° |
| 2026-05-06 12:00 | 51.23380 | 7.65210 | 12490 ft | 374 kts | 58° |
| 2026-05-06 12:00 | 51.24763 | 7.68698 | 11941 ft | 372 kts | 58° |
| 2026-05-06 12:00 | 51.26143 | 7.72183 | 11376 ft | 369 kts | 58° |
| 2026-05-06 12:01 | 51.27512 | 7.75639 | 10824 ft | 367 kts | 58° |
| 2026-05-06 12:01 | 51.28867 | 7.79066 | 10426 ft | 361 kts | 58° |
| 2026-05-06 12:01 | 51.30178 | 7.82392 | 10301 ft | 346 kts | 58° |
| 2026-05-06 12:01 | 51.31434 | 7.85579 | 10180 ft | 332 kts | 58° |
| 2026-05-06 12:02 | 51.32643 | 7.88653 | 10058 ft | 321 kts | 58° |
| 2026-05-06 12:02 | 51.33810 | 7.91623 | 9872 ft | 313 kts | 58° |
| 2026-05-06 12:02 | 51.34956 | 7.94544 | 9795 ft | 309 kts | 59° |
| 2026-05-06 12:02 | 51.36108 | 7.97485 | 9307 ft | 315 kts | 58° |
| 2026-05-06 12:03 | 51.37256 | 8.00421 | 9055 ft | 308 kts | 59° |
| 2026-05-06 12:03 | 51.38381 | 8.03302 | 8510 ft | 304 kts | 59° |
| 2026-05-06 12:03 | 51.39488 | 8.06139 | 7879 ft | 299 kts | 59° |
| 2026-05-06 12:03 | 51.40581 | 8.08945 | 7255 ft | 293 kts | 59° |
| 2026-05-06 12:04 | 51.41649 | 8.11687 | 6677 ft | 287 kts | 59° |
| 2026-05-06 12:04 | 51.42682 | 8.14342 | 6237 ft | 279 kts | 59° |
| 2026-05-06 12:04 | 51.43666 | 8.16869 | 6104 ft | 256 kts | 59° |
| 2026-05-06 12:04 | 51.44574 | 8.19204 | 5971 ft | 240 kts | 59° |
| 2026-05-06 12:05 | 51.45441 | 8.21436 | 5775 ft | 232 kts | 59° |
| 2026-05-06 12:05 | 51.46287 | 8.23616 | 5493 ft | 229 kts | 59° |
| 2026-05-06 12:05 | 51.47113 | 8.25792 | 5211 ft | 225 kts | 64° |
| 2026-05-06 12:05 | 51.47770 | 8.28098 | 4685 ft | 234 kts | 64° |
| 2026-05-06 12:06 | 51.48589 | 8.30392 | 4062 ft | 238 kts | 57° |
| 2026-05-06 12:06 | 51.49481 | 8.32576 | 3811 ft | 230 kts | 56° |
| 2026-05-06 12:06 | 51.50352 | 8.34675 | 3664 ft | 221 kts | 56° |
| 2026-05-06 12:06 | 51.51183 | 8.36690 | 3612 ft | 212 kts | 54° |
| 2026-05-06 12:07 | 51.51992 | 8.38653 | 3491 ft | 210 kts | 55° |
| 2026-05-06 12:07 | 51.52792 | 8.40597 | 3383 ft | 208 kts | 55° |
| 2026-05-06 12:07 | 51.53588 | 8.42531 | 3295 ft | 208 kts | 55° |
| 2026-05-06 12:07 | 51.54383 | 8.44467 | 3087 ft | 207 kts | 54° |
| 2026-05-06 12:08 | 51.55165 | 8.46373 | 2824 ft | 201 kts | 54° |
| 2026-05-06 12:08 | 51.55906 | 8.48179 | 2555 ft | 186 kts | 54° |
| 2026-05-06 12:08 | 51.56577 | 8.49817 | 2325 ft | 167 kts | 54° |
| 2026-05-06 12:08 | 51.57189 | 8.51312 | 2106 ft | 154 kts | 53° |
| 2026-05-06 12:09 | 51.57767 | 8.52723 | 1885 ft | 147 kts | 53° |
| 2026-05-06 12:09 | 51.58322 | 8.54078 | 1677 ft | 144 kts | 51° |
| 2026-05-06 12:09 | 51.58871 | 8.55418 | 1473 ft | 143 kts | 54° |
| 2026-05-06 12:09 | 51.59417 | 8.56753 | 1282 ft | 142 kts | 53° |
| 2026-05-06 12:10 | 51.59954 | 8.58068 | 1082 ft | 140 kts | 52° |
| 2026-05-06 12:10 | 51.60483 | 8.59362 | 906 ft | 140 kts | 51° |
| 2026-05-06 12:10 | 51.61022 | 8.60680 | 723 ft | 136 kts | 55° |
| 2026-05-06 12:10 | 51.61465 | 8.61766 | 701 ft | 93 kts | 57° |
| 2026-05-06 12:11 | 51.61734 | 8.62427 | 692 ft | 45 kts | 57° |
| 2026-05-06 12:11 | 51.61894 | 8.62824 | 682 ft | 38 kts | 62° |
| 2026-05-06 12:11 | 51.61861 | 8.63062 | 683 ft | 13 kts | 162° |
| 2026-05-06 12:11 | 51.61793 | 8.63039 | 681 ft | 13 kts | 202° |
| 2026-05-06 12:12 | 51.61730 | 8.62907 | 685 ft | 15 kts | 238° |
| 2026-05-06 12:12 | 51.61689 | 8.62801 | 691 ft | 7 kts | 236° |
| 2026-05-06 12:12 | 51.61647 | 8.62701 | 695 ft | 14 kts | 236° |
| 2026-05-06 12:12 | 51.61605 | 8.62598 | 693 ft | 7 kts | 236° |
| 2026-05-06 12:13 | 51.61576 | 8.62528 | 697 ft | 14 kts | 237° |
| 2026-05-06 12:13 | 51.61496 | 8.62332 | 711 ft | 26 kts | 237° |
| 2026-05-06 12:13 | 51.61410 | 8.62116 | 718 ft | 20 kts | 237° |
| 2026-05-06 12:13 | 51.61336 | 8.61940 | 718 ft | 20 kts | 237° |
| 2026-05-06 12:14 | 51.61262 | 8.61754 | 721 ft | 19 kts | 236° |
| 2026-05-06 12:14 | 51.61192 | 8.61713 | 722 ft | 7 kts | 152° |
| 2026-05-06 12:14 | 51.61143 | 8.61771 | 732 ft | 7 kts | 118° |
| 2026-05-06 12:14 | 51.61155 | 8.61889 | 731 ft | 11 kts | 107° |
| 2026-05-06 12:15 | 51.61136 | 8.61908 | 730 ft | 4 kts | 153° |
| 2026-05-06 12:15 | 51.61123 | 8.61922 | 731 ft | 2 kts | 142° |
| 2026-05-06 12:15 | 51.61117 | 8.61929 | 731 ft | 0 kts | 146° |